sensor_id;sensor_type;location;lat;lon;timestamp;P1;durP1;ratioP1;P2;durP2;ratioP2
16510;SDS011;8368;48.772;8.754;2022-09-24T00:00:42;7.57;;;6.87;;
16510;SDS011;8368;48.772;8.754;2022-09-24T00:03:19;7.60;;;6.97;;
16510;SDS011;8368;48.772;8.754;2022-09-24T00:05:46;7.20;;;6.50;;
16510;SDS011;8368;48.772;8.754;2022-09-24T00:08:12;7.27;;;6.53;;
16510;SDS011;8368;48.772;8.754;2022-09-24T00:10:40;7.93;;;7.27;;
16510;SDS011;8368;48.772;8.754;2022-09-24T00:13:08;7.23;;;6.30;;
16510;SDS011;8368;48.772;8.754;2022-09-24T00:15:36;7.67;;;6.87;;
16510;SDS011;8368;48.772;8.754;2022-09-24T00:18:11;8.73;;;7.10;;
16510;SDS011;8368;48.772;8.754;2022-09-24T00:20:37;7.87;;;7.10;;
16510;SDS011;8368;48.772;8.754;2022-09-24T00:23:04;8.63;;;7.70;;
16510;SDS011;8368;48.772;8.754;2022-09-24T00:25:30;8.00;;;7.00;;
16510;SDS011;8368;48.772;8.754;2022-09-24T00:28:14;7.67;;;6.97;;
16510;SDS011;8368;48.772;8.754;2022-09-24T00:30:40;10.23;;;7.37;;
16510;SDS011;8368;48.772;8.754;2022-09-24T00:33:07;8.83;;;6.70;;
16510;SDS011;8368;48.772;8.754;2022-09-24T00:35:33;10.97;;;7.40;;
16510;SDS011;8368;48.772;8.754;2022-09-24T00:38:00;7.13;;;6.60;;
16510;SDS011;8368;48.772;8.754;2022-09-24T00:40:27;7.47;;;6.77;;
16510;SDS011;8368;48.772;8.754;2022-09-24T00:42:57;7.23;;;6.63;;
16510;SDS011;8368;48.772;8.754;2022-09-24T00:45:22;9.37;;;7.30;;
16510;SDS011;8368;48.772;8.754;2022-09-24T00:47:49;7.03;;;6.50;;
16510;SDS011;8368;48.772;8.754;2022-09-24T00:50:23;7.73;;;7.03;;
16510;SDS011;8368;48.772;8.754;2022-09-24T00:52:54;8.10;;;7.30;;
16510;SDS011;8368;48.772;8.754;2022-09-24T00:55:39;10.20;;;8.00;;
16510;SDS011;8368;48.772;8.754;2022-09-24T00:58:08;11.03;;;8.43;;
16510;SDS011;8368;48.772;8.754;2022-09-24T01:00:38;8.90;;;8.00;;
16510;SDS011;8368;48.772;8.754;2022-09-24T01:03:09;8.40;;;7.60;;
16510;SDS011;8368;48.772;8.754;2022-09-24T01:05:37;9.27;;;8.23;;
16510;SDS011;8368;48.772;8.754;2022-09-24T01:08:03;8.83;;;7.83;;
16510;SDS011;8368;48.772;8.754;2022-09-24T01:13:28;8.73;;;8.00;;
16510;SDS011;8368;48.772;8.754;2022-09-24T01:18:59;8.67;;;7.53;;
16510;SDS011;8368;48.772;8.754;2022-09-24T01:21:49;8.60;;;7.70;;
16510;SDS011;8368;48.772;8.754;2022-09-24T01:27:14;8.07;;;7.37;;
16510;SDS011;8368;48.772;8.754;2022-09-24T01:29:52;9.17;;;8.33;;
16510;SDS011;8368;48.772;8.754;2022-09-24T01:35:09;8.60;;;7.70;;
16510;SDS011;8368;48.772;8.754;2022-09-24T01:37:55;10.70;;;8.43;;
16510;SDS011;8368;48.772;8.754;2022-09-24T01:40:25;8.80;;;7.90;;
16510;SDS011;8368;48.772;8.754;2022-09-24T01:42:53;9.30;;;7.67;;
16510;SDS011;8368;48.772;8.754;2022-09-24T01:45:20;7.93;;;7.23;;
16510;SDS011;8368;48.772;8.754;2022-09-24T01:47:46;9.47;;;7.73;;
16510;SDS011;8368;48.772;8.754;2022-09-24T01:50:13;10.47;;;8.37;;
16510;SDS011;8368;48.772;8.754;2022-09-24T01:52:44;10.47;;;7.70;;
16510;SDS011;8368;48.772;8.754;2022-09-24T01:55:16;10.97;;;8.10;;
16510;SDS011;8368;48.772;8.754;2022-09-24T01:57:46;10.97;;;8.20;;
16510;SDS011;8368;48.772;8.754;2022-09-24T02:00:16;12.83;;;7.87;;
16510;SDS011;8368;48.772;8.754;2022-09-24T02:05:17;8.53;;;7.83;;
16510;SDS011;8368;48.772;8.754;2022-09-24T02:07:53;10.13;;;7.90;;
16510;SDS011;8368;48.772;8.754;2022-09-24T02:10:28;8.50;;;7.63;;
16510;SDS011;8368;48.772;8.754;2022-09-24T02:12:58;9.43;;;7.67;;
16510;SDS011;8368;48.772;8.754;2022-09-24T02:15:31;7.63;;;6.97;;
16510;SDS011;8368;48.772;8.754;2022-09-24T02:18:02;10.13;;;6.40;;
16510;SDS011;8368;48.772;8.754;2022-09-24T02:20:32;6.57;;;6.00;;
16510;SDS011;8368;48.772;8.754;2022-09-24T02:23:00;6.70;;;6.10;;
16510;SDS011;8368;48.772;8.754;2022-09-24T02:25:30;7.00;;;6.40;;
16510;SDS011;8368;48.772;8.754;2022-09-24T02:28:01;7.30;;;6.60;;
16510;SDS011;8368;48.772;8.754;2022-09-24T02:30:27;7.10;;;6.50;;
16510;SDS011;8368;48.772;8.754;2022-09-24T02:32:56;8.30;;;7.50;;
16510;SDS011;8368;48.772;8.754;2022-09-24T02:35:22;7.70;;;7.00;;
16510;SDS011;8368;48.772;8.754;2022-09-24T02:37:48;7.50;;;6.80;;
16510;SDS011;8368;48.772;8.754;2022-09-24T02:40:14;7.97;;;6.97;;
16510;SDS011;8368;48.772;8.754;2022-09-24T02:42:40;7.43;;;6.73;;
16510;SDS011;8368;48.772;8.754;2022-09-24T02:45:07;7.23;;;6.53;;
16510;SDS011;8368;48.772;8.754;2022-09-24T02:47:33;9.63;;;7.10;;
16510;SDS011;8368;48.772;8.754;2022-09-24T02:49:59;8.43;;;7.00;;
16510;SDS011;8368;48.772;8.754;2022-09-24T02:52:25;7.83;;;6.53;;
16510;SDS011;8368;48.772;8.754;2022-09-24T02:54:51;7.70;;;7.00;;
16510;SDS011;8368;48.772;8.754;2022-09-24T02:57:17;8.37;;;6.60;;
16510;SDS011;8368;48.772;8.754;2022-09-24T02:59:43;7.17;;;6.57;;
16510;SDS011;8368;48.772;8.754;2022-09-24T03:02:09;7.73;;;7.00;;
16510;SDS011;8368;48.772;8.754;2022-09-24T03:04:34;7.60;;;6.80;;
16510;SDS011;8368;48.772;8.754;2022-09-24T03:07:00;6.53;;;5.93;;
16510;SDS011;8368;48.772;8.754;2022-09-24T03:09:25;8.10;;;7.40;;
16510;SDS011;8368;48.772;8.754;2022-09-24T03:11:51;7.63;;;6.90;;
16510;SDS011;8368;48.772;8.754;2022-09-24T03:14:16;7.47;;;6.77;;
16510;SDS011;8368;48.772;8.754;2022-09-24T03:16:42;7.17;;;6.47;;
16510;SDS011;8368;48.772;8.754;2022-09-24T03:19:07;7.60;;;7.00;;
16510;SDS011;8368;48.772;8.754;2022-09-24T03:21:33;8.37;;;7.13;;
16510;SDS011;8368;48.772;8.754;2022-09-24T03:23:59;8.33;;;7.53;;
16510;SDS011;8368;48.772;8.754;2022-09-24T03:26:25;8.40;;;7.33;;
16510;SDS011;8368;48.772;8.754;2022-09-24T03:28:50;8.03;;;7.33;;
16510;SDS011;8368;48.772;8.754;2022-09-24T03:31:16;8.53;;;7.23;;
16510;SDS011;8368;48.772;8.754;2022-09-24T03:33:46;7.37;;;6.77;;
16510;SDS011;8368;48.772;8.754;2022-09-24T03:36:14;6.87;;;6.30;;
16510;SDS011;8368;48.772;8.754;2022-09-24T03:38:45;7.10;;;6.57;;
16510;SDS011;8368;48.772;8.754;2022-09-24T03:41:12;9.53;;;7.40;;
16510;SDS011;8368;48.772;8.754;2022-09-24T03:43:38;8.37;;;7.57;;
16510;SDS011;8368;48.772;8.754;2022-09-24T03:46:05;7.33;;;6.73;;
16510;SDS011;8368;48.772;8.754;2022-09-24T03:48:32;7.83;;;7.13;;
16510;SDS011;8368;48.772;8.754;2022-09-24T03:51:14;8.23;;;6.53;;
16510;SDS011;8368;48.772;8.754;2022-09-24T03:53:42;7.53;;;6.93;;
16510;SDS011;8368;48.772;8.754;2022-09-24T03:56:08;7.90;;;6.53;;
16510;SDS011;8368;48.772;8.754;2022-09-24T03:58:37;8.37;;;6.83;;
16510;SDS011;8368;48.772;8.754;2022-09-24T04:01:06;7.77;;;7.13;;
16510;SDS011;8368;48.772;8.754;2022-09-24T04:03:33;7.60;;;6.83;;
16510;SDS011;8368;48.772;8.754;2022-09-24T04:06:00;8.90;;;7.27;;
16510;SDS011;8368;48.772;8.754;2022-09-24T04:08:26;11.37;;;7.27;;
16510;SDS011;8368;48.772;8.754;2022-09-24T04:10:52;10.13;;;7.60;;
16510;SDS011;8368;48.772;8.754;2022-09-24T04:13:17;11.33;;;7.07;;
16510;SDS011;8368;48.772;8.754;2022-09-24T04:15:43;8.67;;;7.77;;
16510;SDS011;8368;48.772;8.754;2022-09-24T04:18:09;8.53;;;7.27;;
16510;SDS011;8368;48.772;8.754;2022-09-24T04:20:35;9.30;;;7.60;;
16510;SDS011;8368;48.772;8.754;2022-09-24T04:23:01;9.63;;;7.70;;
16510;SDS011;8368;48.772;8.754;2022-09-24T04:25:28;8.73;;;8.03;;
16510;SDS011;8368;48.772;8.754;2022-09-24T04:27:59;8.73;;;7.93;;
16510;SDS011;8368;48.772;8.754;2022-09-24T04:30:26;9.13;;;8.30;;
16510;SDS011;8368;48.772;8.754;2022-09-24T04:32:52;9.27;;;8.20;;
16510;SDS011;8368;48.772;8.754;2022-09-24T04:35:18;9.50;;;8.50;;
16510;SDS011;8368;48.772;8.754;2022-09-24T04:37:45;8.97;;;8.03;;
16510;SDS011;8368;48.772;8.754;2022-09-24T04:40:12;9.10;;;8.20;;
16510;SDS011;8368;48.772;8.754;2022-09-24T04:42:38;9.20;;;8.30;;
16510;SDS011;8368;48.772;8.754;2022-09-24T04:45:08;21.80;;;13.87;;
16510;SDS011;8368;48.772;8.754;2022-09-24T04:47:35;23.37;;;15.60;;
16510;SDS011;8368;48.772;8.754;2022-09-24T04:50:02;17.53;;;12.50;;
16510;SDS011;8368;48.772;8.754;2022-09-24T04:52:29;15.60;;;10.97;;
16510;SDS011;8368;48.772;8.754;2022-09-24T04:54:57;10.47;;;8.70;;
16510;SDS011;8368;48.772;8.754;2022-09-24T04:57:23;9.03;;;8.13;;
16510;SDS011;8368;48.772;8.754;2022-09-24T04:59:49;9.97;;;8.30;;
16510;SDS011;8368;48.772;8.754;2022-09-24T05:02:15;9.90;;;8.90;;
16510;SDS011;8368;48.772;8.754;2022-09-24T05:04:42;9.43;;;8.50;;
16510;SDS011;8368;48.772;8.754;2022-09-24T05:07:07;11.27;;;9.87;;
16510;SDS011;8368;48.772;8.754;2022-09-24T05:09:33;13.60;;;10.30;;
16510;SDS011;8368;48.772;8.754;2022-09-24T05:11:59;15.80;;;11.00;;
16510;SDS011;8368;48.772;8.754;2022-09-24T05:14:25;15.67;;;11.53;;
16510;SDS011;8368;48.772;8.754;2022-09-24T05:16:51;17.63;;;12.30;;
16510;SDS011;8368;48.772;8.754;2022-09-24T05:19:17;19.77;;;14.67;;
16510;SDS011;8368;48.772;8.754;2022-09-24T05:21:42;19.47;;;13.30;;
16510;SDS011;8368;48.772;8.754;2022-09-24T05:24:08;18.20;;;13.23;;
16510;SDS011;8368;48.772;8.754;2022-09-24T05:26:33;20.13;;;12.87;;
16510;SDS011;8368;48.772;8.754;2022-09-24T05:29:17;17.30;;;12.90;;
16510;SDS011;8368;48.772;8.754;2022-09-24T05:31:43;20.50;;;11.77;;
16510;SDS011;8368;48.772;8.754;2022-09-24T05:34:09;12.20;;;9.83;;
16510;SDS011;8368;48.772;8.754;2022-09-24T05:36:34;12.67;;;10.07;;
16510;SDS011;8368;48.772;8.754;2022-09-24T05:39:00;15.90;;;11.57;;
16510;SDS011;8368;48.772;8.754;2022-09-24T05:41:26;15.43;;;11.83;;
16510;SDS011;8368;48.772;8.754;2022-09-24T05:43:51;15.63;;;12.33;;
16510;SDS011;8368;48.772;8.754;2022-09-24T05:46:17;15.93;;;12.50;;
16510;SDS011;8368;48.772;8.754;2022-09-24T05:48:42;18.73;;;12.63;;
16510;SDS011;8368;48.772;8.754;2022-09-24T05:51:08;16.37;;;12.50;;
16510;SDS011;8368;48.772;8.754;2022-09-24T05:53:34;16.47;;;11.93;;
16510;SDS011;8368;48.772;8.754;2022-09-24T05:55:59;17.53;;;12.10;;
16510;SDS011;8368;48.772;8.754;2022-09-24T05:58:25;17.77;;;11.70;;
16510;SDS011;8368;48.772;8.754;2022-09-24T06:00:51;14.07;;;11.20;;
16510;SDS011;8368;48.772;8.754;2022-09-24T06:03:17;12.07;;;10.63;;
16510;SDS011;8368;48.772;8.754;2022-09-24T06:05:44;13.00;;;10.50;;
16510;SDS011;8368;48.772;8.754;2022-09-24T06:08:14;12.60;;;9.40;;
16510;SDS011;8368;48.772;8.754;2022-09-24T06:10:42;12.50;;;10.23;;
16510;SDS011;8368;48.772;8.754;2022-09-24T06:13:09;11.07;;;9.67;;
16510;SDS011;8368;48.772;8.754;2022-09-24T06:15:36;15.30;;;10.43;;
16510;SDS011;8368;48.772;8.754;2022-09-24T06:18:02;12.67;;;9.70;;
16510;SDS011;8368;48.772;8.754;2022-09-24T06:20:28;9.90;;;8.83;;
16510;SDS011;8368;48.772;8.754;2022-09-24T06:22:54;9.33;;;8.37;;
16510;SDS011;8368;48.772;8.754;2022-09-24T06:25:21;9.00;;;7.90;;
16510;SDS011;8368;48.772;8.754;2022-09-24T06:27:52;13.03;;;10.53;;
16510;SDS011;8368;48.772;8.754;2022-09-24T06:30:22;21.50;;;12.13;;
16510;SDS011;8368;48.772;8.754;2022-09-24T06:32:47;18.17;;;11.63;;
16510;SDS011;8368;48.772;8.754;2022-09-24T06:35:13;12.73;;;10.73;;
16510;SDS011;8368;48.772;8.754;2022-09-24T06:37:38;12.93;;;10.93;;
16510;SDS011;8368;48.772;8.754;2022-09-24T06:40:04;13.40;;;10.67;;
16510;SDS011;8368;48.772;8.754;2022-09-24T06:42:30;12.33;;;10.23;;
16510;SDS011;8368;48.772;8.754;2022-09-24T06:44:56;11.57;;;9.43;;
16510;SDS011;8368;48.772;8.754;2022-09-24T06:47:22;10.67;;;9.27;;
16510;SDS011;8368;48.772;8.754;2022-09-24T06:49:48;9.63;;;8.53;;
16510;SDS011;8368;48.772;8.754;2022-09-24T06:52:14;13.30;;;9.67;;
16510;SDS011;8368;48.772;8.754;2022-09-24T06:54:40;9.77;;;7.83;;
16510;SDS011;8368;48.772;8.754;2022-09-24T06:57:06;10.10;;;9.07;;
16510;SDS011;8368;48.772;8.754;2022-09-24T06:59:31;12.17;;;10.03;;
16510;SDS011;8368;48.772;8.754;2022-09-24T07:01:57;10.10;;;8.90;;
16510;SDS011;8368;48.772;8.754;2022-09-24T07:04:23;9.70;;;8.70;;
16510;SDS011;8368;48.772;8.754;2022-09-24T07:06:48;8.40;;;7.60;;
16510;SDS011;8368;48.772;8.754;2022-09-24T07:09:32;11.30;;;8.13;;
16510;SDS011;8368;48.772;8.754;2022-09-24T07:12:00;8.43;;;7.73;;
16510;SDS011;8368;48.772;8.754;2022-09-24T07:14:29;8.77;;;7.97;;
16510;SDS011;8368;48.772;8.754;2022-09-24T07:16:54;11.47;;;8.50;;
16510;SDS011;8368;48.772;8.754;2022-09-24T07:19:20;8.23;;;7.50;;
16510;SDS011;8368;48.772;8.754;2022-09-24T07:21:45;8.57;;;7.63;;
16510;SDS011;8368;48.772;8.754;2022-09-24T07:24:11;10.73;;;7.73;;
16510;SDS011;8368;48.772;8.754;2022-09-24T07:26:36;8.03;;;6.97;;
16510;SDS011;8368;48.772;8.754;2022-09-24T07:29:02;12.70;;;7.90;;
16510;SDS011;8368;48.772;8.754;2022-09-24T07:31:28;9.63;;;8.27;;
16510;SDS011;8368;48.772;8.754;2022-09-24T07:33:54;9.63;;;8.40;;
16510;SDS011;8368;48.772;8.754;2022-09-24T07:36:20;9.38;;;8.48;;
16510;SDS011;8368;48.772;8.754;2022-09-24T07:38:46;9.77;;;8.77;;
16510;SDS011;8368;48.772;8.754;2022-09-24T07:41:12;9.47;;;8.57;;
16510;SDS011;8368;48.772;8.754;2022-09-24T07:43:37;9.50;;;8.27;;
16510;SDS011;8368;48.772;8.754;2022-09-24T07:46:03;8.97;;;7.17;;
16510;SDS011;8368;48.772;8.754;2022-09-24T07:48:28;8.23;;;7.40;;
16510;SDS011;8368;48.772;8.754;2022-09-24T07:50:54;8.90;;;7.90;;
16510;SDS011;8368;48.772;8.754;2022-09-24T07:53:19;10.30;;;7.93;;
16510;SDS011;8368;48.772;8.754;2022-09-24T07:55:45;7.68;;;7.05;;
16510;SDS011;8368;48.772;8.754;2022-09-24T07:58:11;7.60;;;7.00;;
16510;SDS011;8368;48.772;8.754;2022-09-24T08:00:38;8.27;;;6.78;;
16510;SDS011;8368;48.772;8.754;2022-09-24T08:03:04;7.90;;;6.82;;
16510;SDS011;8368;48.772;8.754;2022-09-24T08:05:30;6.97;;;6.32;;
16510;SDS011;8368;48.772;8.754;2022-09-24T08:07:57;7.70;;;7.00;;
16510;SDS011;8368;48.772;8.754;2022-09-24T08:10:23;7.47;;;6.85;;
16510;SDS011;8368;48.772;8.754;2022-09-24T08:12:50;8.40;;;6.85;;
16510;SDS011;8368;48.772;8.754;2022-09-24T08:15:16;9.55;;;7.47;;
16510;SDS011;8368;48.772;8.754;2022-09-24T08:17:42;7.72;;;6.88;;
16510;SDS011;8368;48.772;8.754;2022-09-24T08:20:08;8.32;;;7.05;;
16510;SDS011;8368;48.772;8.754;2022-09-24T08:22:34;7.45;;;6.75;;
16510;SDS011;8368;48.772;8.754;2022-09-24T08:24:59;10.45;;;7.43;;
16510;SDS011;8368;48.772;8.754;2022-09-24T08:27:27;7.70;;;7.00;;
16510;SDS011;8368;48.772;8.754;2022-09-24T08:29:52;7.43;;;6.70;;
16510;SDS011;8368;48.772;8.754;2022-09-24T08:32:18;9.40;;;6.88;;
16510;SDS011;8368;48.772;8.754;2022-09-24T08:34:43;6.88;;;6.28;;
16510;SDS011;8368;48.772;8.754;2022-09-24T08:37:09;7.80;;;7.10;;
16510;SDS011;8368;48.772;8.754;2022-09-24T08:39:35;7.85;;;7.05;;
16510;SDS011;8368;48.772;8.754;2022-09-24T08:42:04;11.15;;;7.40;;
16510;SDS011;8368;48.772;8.754;2022-09-24T08:44:36;9.38;;;6.75;;
16510;SDS011;8368;48.772;8.754;2022-09-24T08:58:10;8.18;;;6.15;;
16510;SDS011;8368;48.772;8.754;2022-09-24T09:12:10;6.82;;;5.70;;
16510;SDS011;8368;48.772;8.754;2022-09-24T09:17:26;7.53;;;6.07;;
16510;SDS011;8368;48.772;8.754;2022-09-24T09:19:57;6.28;;;5.63;;
16510;SDS011;8368;48.772;8.754;2022-09-24T09:22:27;6.35;;;5.65;;
16510;SDS011;8368;48.772;8.754;2022-09-24T09:24:57;5.93;;;5.35;;
16510;SDS011;8368;48.772;8.754;2022-09-24T09:27:28;6.38;;;5.88;;
16510;SDS011;8368;48.772;8.754;2022-09-24T09:29:57;7.78;;;6.50;;
16510;SDS011;8368;48.772;8.754;2022-09-24T09:35:16;7.00;;;6.15;;
16510;SDS011;8368;48.772;8.754;2022-09-24T09:38:16;5.38;;;4.95;;
16510;SDS011;8368;48.772;8.754;2022-09-24T09:43:58;5.20;;;4.35;;
16510;SDS011;8368;48.772;8.754;2022-09-24T09:46:33;8.85;;;7.95;;
16510;SDS011;8368;48.772;8.754;2022-09-24T09:49:05;9.32;;;8.45;;
16510;SDS011;8368;48.772;8.754;2022-09-24T09:51:34;13.35;;;12.05;;
16510;SDS011;8368;48.772;8.754;2022-09-24T09:54:02;9.23;;;8.43;;
16510;SDS011;8368;48.772;8.754;2022-09-24T09:56:29;3.47;;;3.25;;
16510;SDS011;8368;48.772;8.754;2022-09-24T09:59:00;3.40;;;3.10;;
16510;SDS011;8368;48.772;8.754;2022-09-24T10:01:31;3.90;;;3.60;;
16510;SDS011;8368;48.772;8.754;2022-09-24T10:03:58;3.75;;;3.55;;
16510;SDS011;8368;48.772;8.754;2022-09-24T10:06:34;2.97;;;2.88;;
16510;SDS011;8368;48.772;8.754;2022-09-24T10:11:43;3.80;;;3.22;;
16510;SDS011;8368;48.772;8.754;2022-09-24T10:14:11;3.50;;;3.30;;
16510;SDS011;8368;48.772;8.754;2022-09-24T10:16:38;3.22;;;2.92;;
16510;SDS011;8368;48.772;8.754;2022-09-24T10:19:16;3.95;;;3.17;;
16510;SDS011;8368;48.772;8.754;2022-09-24T10:21:45;2.88;;;2.78;;
16510;SDS011;8368;48.772;8.754;2022-09-24T10:24:20;3.08;;;2.88;;
16510;SDS011;8368;48.772;8.754;2022-09-24T10:26:51;2.80;;;2.70;;
16510;SDS011;8368;48.772;8.754;2022-09-24T10:32:13;3.60;;;3.40;;
16510;SDS011;8368;48.772;8.754;2022-09-24T10:34:57;3.60;;;3.40;;
16510;SDS011;8368;48.772;8.754;2022-09-24T10:37:24;4.85;;;4.50;;
16510;SDS011;8368;48.772;8.754;2022-09-24T10:40:00;4.90;;;4.60;;
16510;SDS011;8368;48.772;8.754;2022-09-24T10:42:35;4.22;;;3.95;;
16510;SDS011;8368;48.772;8.754;2022-09-24T10:45:01;4.32;;;3.92;;
16510;SDS011;8368;48.772;8.754;2022-09-24T10:50:21;4.47;;;4.15;;
16510;SDS011;8368;48.772;8.754;2022-09-24T10:53:47;4.50;;;4.30;;
16510;SDS011;8368;48.772;8.754;2022-09-24T10:59:00;3.28;;;3.17;;
16510;SDS011;8368;48.772;8.754;2022-09-24T11:01:47;4.20;;;3.80;;
16510;SDS011;8368;48.772;8.754;2022-09-24T11:04:30;4.20;;;4.00;;
16510;SDS011;8368;48.772;8.754;2022-09-24T11:18:16;3.53;;;3.33;;
16510;SDS011;8368;48.772;8.754;2022-09-24T11:35:44;3.78;;;3.58;;
16510;SDS011;8368;48.772;8.754;2022-09-24T11:41:19;3.40;;;3.10;;
16510;SDS011;8368;48.772;8.754;2022-09-24T11:44:37;3.97;;;3.67;;
16510;SDS011;8368;48.772;8.754;2022-09-24T11:49:25;3.47;;;3.28;;
16510;SDS011;8368;48.772;8.754;2022-09-24T11:52:19;4.07;;;3.85;;
16510;SDS011;8368;48.772;8.754;2022-09-24T11:55:21;3.90;;;3.70;;
16510;SDS011;8368;48.772;8.754;2022-09-24T12:00:37;5.65;;;5.18;;
16510;SDS011;8368;48.772;8.754;2022-09-24T12:03:13;7.20;;;6.40;;
16510;SDS011;8368;48.772;8.754;2022-09-24T12:05:57;6.90;;;6.20;;
16510;SDS011;8368;48.772;8.754;2022-09-24T12:08:41;5.38;;;4.97;;
16510;SDS011;8368;48.772;8.754;2022-09-24T12:11:22;6.95;;;5.85;;
16510;SDS011;8368;48.772;8.754;2022-09-24T12:14:05;6.07;;;5.68;;
16510;SDS011;8368;48.772;8.754;2022-09-24T12:16:44;4.70;;;4.15;;
16510;SDS011;8368;48.772;8.754;2022-09-24T12:19:17;4.07;;;3.83;;
16510;SDS011;8368;48.772;8.754;2022-09-24T12:21:47;3.63;;;3.33;;
16510;SDS011;8368;48.772;8.754;2022-09-24T12:24:35;3.60;;;3.28;;
16510;SDS011;8368;48.772;8.754;2022-09-24T12:27:12;4.22;;;3.92;;
16510;SDS011;8368;48.772;8.754;2022-09-24T12:33:02;4.13;;;3.53;;
16510;SDS011;8368;48.772;8.754;2022-09-24T12:38:29;3.63;;;2.72;;
16510;SDS011;8368;48.772;8.754;2022-09-24T12:41:10;3.40;;;3.20;;
16510;SDS011;8368;48.772;8.754;2022-09-24T12:46:40;3.50;;;3.30;;
16510;SDS011;8368;48.772;8.754;2022-09-24T12:51:54;3.72;;;3.53;;
16510;SDS011;8368;48.772;8.754;2022-09-24T13:00:01;4.10;;;3.90;;
16510;SDS011;8368;48.772;8.754;2022-09-24T13:02:47;3.95;;;3.75;;
16510;SDS011;8368;48.772;8.754;2022-09-24T13:08:00;3.95;;;3.65;;
16510;SDS011;8368;48.772;8.754;2022-09-24T13:10:35;3.75;;;3.55;;
16510;SDS011;8368;48.772;8.754;2022-09-24T13:13:02;4.55;;;4.13;;
16510;SDS011;8368;48.772;8.754;2022-09-24T13:15:40;5.47;;;4.30;;
16510;SDS011;8368;48.772;8.754;2022-09-24T13:20:36;3.65;;;3.45;;
16510;SDS011;8368;48.772;8.754;2022-09-24T13:25:57;4.10;;;3.90;;
16510;SDS011;8368;48.772;8.754;2022-09-24T13:28:50;5.63;;;4.05;;
16510;SDS011;8368;48.772;8.754;2022-09-24T13:39:54;3.78;;;3.42;;
16510;SDS011;8368;48.772;8.754;2022-09-24T13:45:15;3.78;;;3.55;;
16510;SDS011;8368;48.772;8.754;2022-09-24T13:47:57;4.47;;;4.07;;
16510;SDS011;8368;48.772;8.754;2022-09-24T13:50:34;5.57;;;5.10;;
16510;SDS011;8368;48.772;8.754;2022-09-24T13:53:06;4.65;;;4.30;;
16510;SDS011;8368;48.772;8.754;2022-09-24T13:55:43;3.97;;;3.63;;
16510;SDS011;8368;48.772;8.754;2022-09-24T13:58:27;4.30;;;4.00;;
16510;SDS011;8368;48.772;8.754;2022-09-24T14:01:05;3.90;;;3.60;;
16510;SDS011;8368;48.772;8.754;2022-09-24T14:03:35;4.45;;;4.05;;
16510;SDS011;8368;48.772;8.754;2022-09-24T14:06:07;4.18;;;3.88;;
16510;SDS011;8368;48.772;8.754;2022-09-24T14:08:35;4.43;;;4.13;;
16510;SDS011;8368;48.772;8.754;2022-09-24T14:11:03;3.95;;;3.67;;
16510;SDS011;8368;48.772;8.754;2022-09-24T14:13:34;3.85;;;3.65;;
16510;SDS011;8368;48.772;8.754;2022-09-24T14:16:07;4.55;;;4.13;;
16510;SDS011;8368;48.772;8.754;2022-09-24T14:18:34;4.55;;;4.15;;
16510;SDS011;8368;48.772;8.754;2022-09-24T14:21:08;4.15;;;3.85;;
16510;SDS011;8368;48.772;8.754;2022-09-24T14:23:55;4.15;;;3.83;;
16510;SDS011;8368;48.772;8.754;2022-09-24T14:29:03;3.88;;;3.67;;
16510;SDS011;8368;48.772;8.754;2022-09-24T14:31:41;4.10;;;3.80;;
16510;SDS011;8368;48.772;8.754;2022-09-24T14:34:13;4.75;;;3.63;;
16510;SDS011;8368;48.772;8.754;2022-09-24T14:36:53;4.20;;;4.00;;
16510;SDS011;8368;48.772;8.754;2022-09-24T14:39:23;4.15;;;3.90;;
16510;SDS011;8368;48.772;8.754;2022-09-24T14:41:51;4.20;;;3.90;;
16510;SDS011;8368;48.772;8.754;2022-09-24T14:46:48;4.55;;;4.15;;
16510;SDS011;8368;48.772;8.754;2022-09-24T14:49:22;4.25;;;3.95;;
16510;SDS011;8368;48.772;8.754;2022-09-24T14:52:23;4.97;;;4.50;;
16510;SDS011;8368;48.772;8.754;2022-09-24T14:57:41;4.47;;;4.20;;
16510;SDS011;8368;48.772;8.754;2022-09-24T15:00:22;4.00;;;3.85;;
16510;SDS011;8368;48.772;8.754;2022-09-24T15:03:26;4.47;;;3.80;;
16510;SDS011;8368;48.772;8.754;2022-09-24T15:05:47;4.70;;;4.40;;
16510;SDS011;8368;48.772;8.754;2022-09-24T15:08:16;5.40;;;4.57;;
16510;SDS011;8368;48.772;8.754;2022-09-24T15:10:50;5.13;;;4.40;;
16510;SDS011;8368;48.772;8.754;2022-09-24T15:13:20;5.00;;;4.60;;
16510;SDS011;8368;48.772;8.754;2022-09-24T15:15:48;8.75;;;7.95;;
16510;SDS011;8368;48.772;8.754;2022-09-24T15:18:14;10.45;;;8.85;;
16510;SDS011;8368;48.772;8.754;2022-09-24T15:20:42;8.57;;;7.10;;
16510;SDS011;8368;48.772;8.754;2022-09-24T15:23:08;7.85;;;7.07;;
16510;SDS011;8368;48.772;8.754;2022-09-24T15:25:33;5.82;;;5.15;;
16510;SDS011;8368;48.772;8.754;2022-09-24T15:28:00;5.93;;;5.38;;
16510;SDS011;8368;48.772;8.754;2022-09-24T15:30:26;6.78;;;6.28;;
16510;SDS011;8368;48.772;8.754;2022-09-24T15:32:51;9.18;;;8.38;;
16510;SDS011;8368;48.772;8.754;2022-09-24T15:35:17;5.38;;;4.97;;
16510;SDS011;8368;48.772;8.754;2022-09-24T15:37:43;9.43;;;6.75;;
16510;SDS011;8368;48.772;8.754;2022-09-24T15:40:18;5.40;;;5.00;;
16510;SDS011;8368;48.772;8.754;2022-09-24T15:42:49;5.50;;;5.10;;
16510;SDS011;8368;48.772;8.754;2022-09-24T15:45:19;5.63;;;5.13;;
16510;SDS011;8368;48.772;8.754;2022-09-24T15:47:46;5.57;;;5.10;;
16510;SDS011;8368;48.772;8.754;2022-09-24T15:50:13;5.75;;;5.35;;
16510;SDS011;8368;48.772;8.754;2022-09-24T15:52:41;6.30;;;5.68;;
16510;SDS011;8368;48.772;8.754;2022-09-24T15:55:26;5.70;;;5.18;;
16510;SDS011;8368;48.772;8.754;2022-09-24T15:57:52;6.10;;;5.30;;
16510;SDS011;8368;48.772;8.754;2022-09-24T16:00:20;5.85;;;5.32;;
16510;SDS011;8368;48.772;8.754;2022-09-24T16:02:50;5.80;;;5.40;;
16510;SDS011;8368;48.772;8.754;2022-09-24T16:05:18;5.82;;;5.32;;
16510;SDS011;8368;48.772;8.754;2022-09-24T16:07:44;5.80;;;5.15;;
16510;SDS011;8368;48.772;8.754;2022-09-24T16:10:10;5.75;;;5.25;;
16510;SDS011;8368;48.772;8.754;2022-09-24T16:12:37;6.10;;;5.60;;
16510;SDS011;8368;48.772;8.754;2022-09-24T16:15:04;10.70;;;6.70;;
16510;SDS011;8368;48.772;8.754;2022-09-24T16:17:30;7.20;;;5.95;;
16510;SDS011;8368;48.772;8.754;2022-09-24T16:19:56;5.70;;;5.30;;
16510;SDS011;8368;48.772;8.754;2022-09-24T16:22:22;5.80;;;5.30;;
16510;SDS011;8368;48.772;8.754;2022-09-24T16:24:48;5.75;;;5.18;;
16510;SDS011;8368;48.772;8.754;2022-09-24T16:27:13;5.43;;;4.85;;
16510;SDS011;8368;48.772;8.754;2022-09-24T16:29:39;6.72;;;5.35;;
16510;SDS011;8368;48.772;8.754;2022-09-24T16:32:04;6.10;;;5.70;;
16510;SDS011;8368;48.772;8.754;2022-09-24T16:34:30;6.65;;;5.68;;
16510;SDS011;8368;48.772;8.754;2022-09-24T16:36:56;5.97;;;5.47;;
16510;SDS011;8368;48.772;8.754;2022-09-24T16:39:22;8.52;;;6.10;;
16510;SDS011;8368;48.772;8.754;2022-09-24T16:41:48;6.60;;;6.10;;
16510;SDS011;8368;48.772;8.754;2022-09-24T16:44:14;10.30;;;6.47;;
16510;SDS011;8368;48.772;8.754;2022-09-24T16:46:41;7.05;;;6.45;;
16510;SDS011;8368;48.772;8.754;2022-09-24T16:49:07;8.97;;;6.53;;
16510;SDS011;8368;48.772;8.754;2022-09-24T16:51:33;7.95;;;6.85;;
16510;SDS011;8368;48.772;8.754;2022-09-24T16:53:58;14.47;;;12.43;;
16510;SDS011;8368;48.772;8.754;2022-09-24T16:56:24;16.47;;;13.30;;
16510;SDS011;8368;48.772;8.754;2022-09-24T16:58:50;9.83;;;8.93;;
16510;SDS011;8368;48.772;8.754;2022-09-24T17:01:17;9.38;;;8.30;;
16510;SDS011;8368;48.772;8.754;2022-09-24T17:03:44;19.10;;;12.13;;
16510;SDS011;8368;48.772;8.754;2022-09-24T17:06:19;11.93;;;10.75;;
16510;SDS011;8368;48.772;8.754;2022-09-24T17:08:49;15.00;;;12.83;;
16510;SDS011;8368;48.772;8.754;2022-09-24T17:11:34;11.83;;;9.47;;
16510;SDS011;8368;48.772;8.754;2022-09-24T17:14:01;11.97;;;9.23;;
16510;SDS011;8368;48.772;8.754;2022-09-24T17:16:26;13.98;;;9.70;;
16510;SDS011;8368;48.772;8.754;2022-09-24T17:18:53;10.50;;;9.40;;
16510;SDS011;8368;48.772;8.754;2022-09-24T17:21:18;15.93;;;10.47;;
16510;SDS011;8368;48.772;8.754;2022-09-24T17:23:45;13.55;;;10.15;;
16510;SDS011;8368;48.772;8.754;2022-09-24T17:26:12;15.23;;;11.98;;